sensor_id;sensor_type;location;lat;lon;timestamp;P1;durP1;ratioP1;P2;durP2;ratioP2
73104;SDS011;61296;50.526;30.792;2024-01-16T00:11:46;33.22;;;12.32;;
73104;SDS011;61296;50.526;30.792;2024-01-16T00:27:18;31.92;;;12.77;;
73104;SDS011;61296;50.526;30.792;2024-01-16T00:42:52;35.97;;;13.68;;
73104;SDS011;61296;50.526;30.792;2024-01-16T00:58:24;37.03;;;14.80;;
73104;SDS011;61296;50.526;30.792;2024-01-16T01:13:58;35.10;;;14.00;;
73104;SDS011;61296;50.526;30.792;2024-01-16T01:29:31;32.25;;;12.95;;
73104;SDS011;61296;50.526;30.792;2024-01-16T01:45:04;31.25;;;12.70;;
73104;SDS011;61296;50.526;30.792;2024-01-16T02:00:37;31.85;;;12.90;;
73104;SDS011;61296;50.526;30.792;2024-01-16T02:16:20;32.55;;;13.07;;
73104;SDS011;61296;50.526;30.792;2024-01-16T02:31:53;35.15;;;13.30;;
73104;SDS011;61296;50.526;30.792;2024-01-16T02:47:26;32.05;;;13.75;;
73104;SDS011;61296;50.526;30.792;2024-01-16T03:02:59;31.00;;;12.65;;
73104;SDS011;61296;50.526;30.792;2024-01-16T03:18:32;32.47;;;12.95;;
73104;SDS011;61296;50.526;30.792;2024-01-16T03:34:05;31.85;;;12.95;;
73104;SDS011;61296;50.526;30.792;2024-01-16T03:49:40;33.72;;;12.77;;
73104;SDS011;61296;50.526;30.792;2024-01-16T04:05:13;34.20;;;13.20;;
73104;SDS011;61296;50.526;30.792;2024-01-16T04:20:46;35.17;;;13.85;;
73104;SDS011;61296;50.526;30.792;2024-01-16T04:36:19;39.95;;;14.90;;
73104;SDS011;61296;50.526;30.792;2024-01-16T04:51:52;35.83;;;12.98;;
73104;SDS011;61296;50.526;30.792;2024-01-16T05:07:25;38.20;;;14.02;;
73104;SDS011;61296;50.526;30.792;2024-01-16T05:22:58;36.90;;;15.30;;
73104;SDS011;61296;50.526;30.792;2024-01-16T05:38:31;36.40;;;13.98;;
73104;SDS011;61296;50.526;30.792;2024-01-16T05:54:04;30.83;;;12.63;;
73104;SDS011;61296;50.526;30.792;2024-01-16T06:09:40;35.75;;;12.63;;
73104;SDS011;61296;50.526;30.792;2024-01-16T06:25:13;32.40;;;12.13;;
73104;SDS011;61296;50.526;30.792;2024-01-16T06:40:46;24.52;;;9.10;;
73104;SDS011;61296;50.526;30.792;2024-01-16T06:56:20;27.05;;;9.45;;
73104;SDS011;61296;50.526;30.792;2024-01-16T07:11:53;24.55;;;9.90;;
73104;SDS011;61296;50.526;30.792;2024-01-16T07:27:26;21.85;;;8.98;;
73104;SDS011;61296;50.526;30.792;2024-01-16T07:42:59;24.33;;;9.95;;
73104;SDS011;61296;50.526;30.792;2024-01-16T07:58:32;23.50;;;8.45;;
73104;SDS011;61296;50.526;30.792;2024-01-16T08:14:05;25.20;;;9.88;;
73104;SDS011;61296;50.526;30.792;2024-01-16T08:29:39;16.77;;;8.20;;
73104;SDS011;61296;50.526;30.792;2024-01-16T08:45:12;17.17;;;7.30;;
73104;SDS011;61296;50.526;30.792;2024-01-16T09:00:45;11.80;;;5.57;;
73104;SDS011;61296;50.526;30.792;2024-01-16T09:16:18;12.93;;;6.00;;
73104;SDS011;61296;50.526;30.792;2024-01-16T09:31:51;12.95;;;5.18;;
73104;SDS011;61296;50.526;30.792;2024-01-16T09:47:24;9.90;;;4.10;;
73104;SDS011;61296;50.526;30.792;2024-01-16T10:02:57;8.23;;;3.63;;
73104;SDS011;61296;50.526;30.792;2024-01-16T10:18:31;6.35;;;3.10;;
73104;SDS011;61296;50.526;30.792;2024-01-16T10:34:09;6.15;;;2.40;;
73104;SDS011;61296;50.526;30.792;2024-01-16T10:49:52;5.70;;;2.30;;
73104;SDS011;61296;50.526;30.792;2024-01-16T11:05:27;4.38;;;2.30;;
73104;SDS011;61296;50.526;30.792;2024-01-16T11:21:12;5.90;;;2.40;;
73104;SDS011;61296;50.526;30.792;2024-01-16T11:52:41;6.75;;;2.10;;
73104;SDS011;61296;50.526;30.792;2024-01-16T12:08:20;4.55;;;1.77;;
73104;SDS011;61296;50.526;30.792;2024-01-16T12:23:54;3.80;;;1.45;;
73104;SDS011;61296;50.526;30.792;2024-01-16T12:39:27;2.55;;;1.75;;
73104;SDS011;61296;50.526;30.792;2024-01-16T12:55:00;1.75;;;1.42;;
73104;SDS011;61296;50.526;30.792;2024-01-16T13:10:34;9.77;;;2.45;;
73104;SDS011;61296;50.526;30.792;2024-01-16T13:26:08;8.95;;;2.50;;
73104;SDS011;61296;50.526;30.792;2024-01-16T13:41:42;2.90;;;2.20;;
73104;SDS011;61296;50.526;30.792;2024-01-16T13:57:15;4.15;;;2.40;;
73104;SDS011;61296;50.526;30.792;2024-01-16T14:12:49;3.60;;;1.88;;
73104;SDS011;61296;50.526;30.792;2024-01-16T14:28:23;13.30;;;3.40;;
73104;SDS011;61296;50.526;30.792;2024-01-16T14:43:58;5.05;;;2.80;;
73104;SDS011;61296;50.526;30.792;2024-01-16T14:59:31;5.65;;;2.90;;
73104;SDS011;61296;50.526;30.792;2024-01-16T15:15:04;6.90;;;3.63;;
73104;SDS011;61296;50.526;30.792;2024-01-16T15:30:40;9.40;;;4.03;;
73104;SDS011;61296;50.526;30.792;2024-01-16T15:46:15;12.98;;;3.50;;
73104;SDS011;61296;50.526;30.792;2024-01-16T16:01:49;9.88;;;4.18;;
73104;SDS011;61296;50.526;30.792;2024-01-16T16:17:24;11.23;;;4.18;;
73104;SDS011;61296;50.526;30.792;2024-01-16T16:32:57;8.68;;;4.18;;
73104;SDS011;61296;50.526;30.792;2024-01-16T16:48:30;8.45;;;3.80;;
73104;SDS011;61296;50.526;30.792;2024-01-16T17:04:03;9.88;;;4.50;;
73104;SDS011;61296;50.526;30.792;2024-01-16T17:19:37;9.77;;;4.22;;
73104;SDS011;61296;50.526;30.792;2024-01-16T17:35:10;9.63;;;4.10;;
73104;SDS011;61296;50.526;30.792;2024-01-16T17:50:44;8.70;;;4.15;;
73104;SDS011;61296;50.526;30.792;2024-01-16T18:06:19;8.98;;;3.85;;
73104;SDS011;61296;50.526;30.792;2024-01-16T18:21:54;8.02;;;3.70;;
73104;SDS011;61296;50.526;30.792;2024-01-16T18:37:27;9.13;;;3.65;;
73104;SDS011;61296;50.526;30.792;2024-01-16T18:53:01;12.75;;;4.35;;
73104;SDS011;61296;50.526;30.792;2024-01-16T19:08:34;10.77;;;4.40;;
73104;SDS011;61296;50.526;30.792;2024-01-16T19:24:07;7.60;;;3.95;;
73104;SDS011;61296;50.526;30.792;2024-01-16T19:39:42;10.77;;;3.90;;
73104;SDS011;61296;50.526;30.792;2024-01-16T19:55:16;7.95;;;3.30;;
73104;SDS011;61296;50.526;30.792;2024-01-16T20:10:51;10.10;;;4.55;;
73104;SDS011;61296;50.526;30.792;2024-01-16T20:26:24;10.82;;;3.85;;
73104;SDS011;61296;50.526;30.792;2024-01-16T20:41:58;8.57;;;3.78;;
73104;SDS011;61296;50.526;30.792;2024-01-16T20:57:32;10.07;;;3.10;;
73104;SDS011;61296;50.526;30.792;2024-01-16T21:13:05;5.70;;;2.70;;
73104;SDS011;61296;50.526;30.792;2024-01-16T21:28:40;5.22;;;2.70;;
73104;SDS011;61296;50.526;30.792;2024-01-16T21:44:12;5.70;;;2.92;;
73104;SDS011;61296;50.526;30.792;2024-01-16T21:59:45;5.18;;;2.90;;
73104;SDS011;61296;50.526;30.792;2024-01-16T22:15:18;5.03;;;2.67;;
73104;SDS011;61296;50.526;30.792;2024-01-16T22:30:51;5.97;;;2.47;;
73104;SDS011;61296;50.526;30.792;2024-01-16T22:46:25;6.65;;;2.45;;
73104;SDS011;61296;50.526;30.792;2024-01-16T23:01:57;5.30;;;2.42;;
73104;SDS011;61296;50.526;30.792;2024-01-16T23:17:29;6.38;;;2.20;;
73104;SDS011;61296;50.526;30.792;2024-01-16T23:33:01;6.18;;;2.70;;
73104;SDS011;61296;50.526;30.792;2024-01-16T23:48:35;10.13;;;3.08;;
